Archival Weather

Chicago O'Hare International

Chicago, Illinois (KORD)

Report from: Wednesday, February 16, 2022 8:18 PM CST
Current time: Saturday, February 4, 2023 10:29 PM CST

Current weather
Weather history
Weather forecast

Present weatherHeavy rain, mist
Temperature10.6°C (51.1°F)
Dew point8.3°C (46.9°F)
Winds 11 kts (5.7 m/s, 12.7 mph) West (270°)
Wind gusts 18 kts (9.3 m/s, 20.7 mph)
Visibility3 mi. (4.8 km)
Clouds Ceiling: Broken clouds 1,700 ft. (518 m)
Broken clouds 2,200 ft. (671 m)
Overcast 4,600 ft. (1,402 m)
Altimeter29.78 in.Hg (1008 mB)
Precipitiation0.13 in. (3 mm)
Relative humidity86 %
Density altitude-206 ft. (-63 m)
Remarks Automated weather observing station with precipitation discriminator
Flight conditions Marginal Visual Meteorological Conditions
Raw dataKORD 170218Z 27011G18KT 3SM +RA BR BKN017 BKN022 OVC046 11/08 A2978 RMK AO2 WSHFT 0149 P0013 T01060083
An unhandled exception has occurred. See browser dev tools for details. Reload 🗙